Time;durP1;ratioP1;P1;durP2;ratioP2;P2;SDS_P1;SDS_P2;PMS_P1;PMS_P2;Temp;Humidity;BMP_temperature;BMP_pressure;BME280_temperature;BME280_humidity;BME280_pressure;Samples;Min_cycle;Max_cycle;Signal;HPM_P1;HPM_P2
2021/07/28 00:00:59;;;;;;;8.93;7.13;;;;;;;20.61;72.24;96570.16;128050;1093;22883;-89
2021/07/28 00:03:30;;;;;;;9.93;6.75;;;;;;;20.66;72.32;96569.89;128061;1093;24291;-89
2021/07/28 00:06:01;;;;;;;8.90;6.60;;;;;;;20.65;72.03;96562.16;127969;1093;22799;-91
2021/07/28 00:08:32;;;;;;;9.98;7.20;;;;;;;20.67;72.27;96565.28;127939;1093;23228;-90
2021/07/28 00:11:04;;;;;;;8.83;6.88;;;;;;;20.50;71.21;96566.38;127873;1092;24052;-90
2021/07/28 00:13:35;;;;;;;9.20;6.80;;;;;;;20.48;71.92;96565.16;128076;1093;24684;-91
2021/07/28 00:16:10;;;;;;;8.43;6.18;;;;;;;20.29;72.02;96555.00;128107;1093;22816;-90
2021/07/28 00:18:50;;;;;;;9.93;6.90;;;;;;;20.21;72.55;96553.22;128105;1092;22813;-90
2021/07/28 00:24:10;;;;;;;9.70;6.90;;;;;;;20.25;73.19;96554.09;128086;1092;24158;-90
2021/07/28 00:26:42;;;;;;;8.98;7.08;;;;;;;20.27;72.94;96547.27;128111;1092;22833;-90
2021/07/28 00:29:13;;;;;;;8.08;6.35;;;;;;;20.31;73.17;96547.36;128088;1092;24041;-91
2021/07/28 00:31:44;;;;;;;8.70;6.90;;;;;;;20.33;73.23;96545.11;128064;1093;27845;-90
2021/07/28 00:34:15;;;;;;;10.30;7.50;;;;;;;20.26;72.95;96550.27;128079;1092;25867;-89
2021/07/28 00:36:46;;;;;;;10.13;7.23;;;;;;;20.15;73.15;96555.38;128105;1093;22764;-90
2021/07/28 00:39:17;;;;;;;10.98;7.70;;;;;;;20.09;73.65;96554.81;128100;1092;24849;-92
2021/07/28 00:41:49;;;;;;;9.38;6.83;;;;;;;20.00;74.07;96554.19;128074;1092;22796;-91
2021/07/28 00:44:20;;;;;;;8.20;7.10;;;;;;;19.97;74.31;96548.67;128170;1092;22813;-89
2021/07/28 00:46:52;;;;;;;12.30;8.20;;;;;;;19.95;74.26;96545.55;128120;1093;22999;-91
2021/07/28 00:49:24;;;;;;;9.68;7.63;;;;;;;19.98;74.32;96537.56;127986;1093;22798;-87
2021/07/28 00:52:02;;;;;;;8.60;6.95;;;;;;;19.94;74.46;96539.38;128052;1093;24682;-90
2021/07/28 00:54:34;;;;;;;10.45;7.10;;;;;;;19.89;74.17;96536.16;128084;1092;24605;-90
2021/07/28 00:57:07;;;;;;;8.20;6.55;;;;;;;19.91;74.26;96536.59;128012;1092;22860;-90
2021/07/28 00:59:38;;;;;;;9.90;7.30;;;;;;;19.92;74.21;96530.87;128117;1092;24832;-90
2021/07/28 01:02:10;;;;;;;11.43;7.20;;;;;;;19.94;74.12;96528.61;128011;1092;22854;-89
2021/07/28 01:04:41;;;;;;;11.13;6.95;;;;;;;19.95;74.20;96530.18;128072;1093;24508;-91
2021/07/28 01:07:13;;;;;;;8.43;6.40;;;;;;;19.89;73.97;96526.17;128096;1093;24386;-91
2021/07/28 01:09:44;;;;;;;11.78;8.38;;;;;;;19.86;74.44;96530.33;128037;1092;22809;-91
2021/07/28 01:12:15;;;;;;;11.68;8.38;;;;;;;19.82;74.95;96525.95;128056;1093;22816;-91
2021/07/28 01:14:49;;;;;;;11.35;8.20;;;;;;;19.84;75.26;96523.70;128156;1093;24938;-91
2021/07/28 01:17:21;;;;;;;9.80;7.50;;;;;;;19.92;75.21;96520.11;128037;1092;23023;-91
2021/07/28 01:19:59;;;;;;;9.33;7.00;;;;;;;19.94;75.08;96515.16;128153;1093;22866;-90
2021/07/28 01:22:30;;;;;;;10.38;7.40;;;;;;;19.97;74.98;96516.38;128299;1092;23515;-90
2021/07/28 01:25:02;;;;;;;11.28;8.68;;;;;;;19.93;75.20;96510.91;129687;1093;25179;-90
2021/07/28 01:27:33;;;;;;;10.53;8.18;;;;;;;19.97;75.28;96511.00;129512;1093;23490;-90
2021/07/28 01:30:04;;;;;;;10.90;7.73;;;;;;;19.97;75.16;96517.16;128532;1093;22825;-90
2021/07/28 01:32:37;;;;;;;12.28;7.80;;;;;;;19.89;75.13;96518.10;127920;1093;23778;-90
2021/07/28 01:35:15;;;;;;;11.48;7.20;;;;;;;19.77;74.95;96518.13;128080;1093;25868;-90
2021/07/28 01:37:48;;;;;;;10.68;7.38;;;;;;;19.71;75.64;96517.59;128040;1092;22795;-89
2021/07/28 01:40:19;;;;;;;11.68;8.35;;;;;;;19.83;75.59;96522.13;128021;1093;23379;-90
2021/07/28 01:42:51;;;;;;;10.67;7.80;;;;;;;19.90;75.60;96516.98;128150;1092;22787;-89
2021/07/28 01:45:22;;;;;;;11.83;7.73;;;;;;;19.96;75.71;96507.53;128121;1093;23927;-91
2021/07/28 01:47:53;;;;;;;10.40;7.35;;;;;;;20.02;75.40;96516.16;127966;1092;22795;-87
2021/07/28 01:50:25;;;;;;;10.67;7.40;;;;;;;20.03;75.13;96505.05;128091;1093;24890;-89
2021/07/28 01:53:01;;;;;;;9.80;7.45;;;;;;;20.05;75.19;96508.19;127999;1092;24240;-90
2021/07/28 01:55:33;;;;;;;9.05;7.30;;;;;;;20.07;75.01;96505.15;128064;1092;22823;-91
2021/07/28 01:58:04;;;;;;;10.00;7.25;;;;;;;20.11;75.14;96509.50;128106;1092;24387;-89
2021/07/28 02:00:35;;;;;;;10.77;7.83;;;;;;;20.16;75.30;96497.72;127916;1093;23885;-91
2021/07/28 02:03:07;;;;;;;10.63;7.48;;;;;;;20.20;75.29;96503.98;128068;1092;23016;-89
2021/07/28 02:05:41;;;;;;;9.90;7.28;;;;;;;20.16;75.10;96503.89;127863;1092;26302;-90
2021/07/28 02:08:14;;;;;;;10.20;7.30;;;;;;;20.12;74.92;96505.68;127918;1092;22810;-90
2021/07/28 02:10:48;;;;;;;14.05;7.55;;;;;;;20.02;74.79;96500.80;128004;1092;22788;-89
2021/07/28 02:13:20;;;;;;;9.90;7.63;;;;;;;19.96;75.01;96494.08;128021;1093;23014;-90
2021/07/28 02:15:52;;;;;;;10.13;7.00;;;;;;;19.91;74.84;96490.85;128127;1092;22800;-90
2021/07/28 02:18:23;;;;;;;11.05;7.40;;;;;;;19.85;75.36;96487.63;127899;1092;22790;-90
2021/07/28 02:20:54;;;;;;;9.38;7.23;;;;;;;19.84;75.35;96492.20;128010;1092;22817;-91
2021/07/28 02:23:25;;;;;;;9.25;6.53;;;;;;;19.85;75.47;96493.01;127813;1092;23003;-91
2021/07/28 02:25:57;;;;;;;10.05;7.10;;;;;;;19.89;75.51;96485.03;128100;1093;26241;-92
2021/07/28 02:28:29;;;;;;;8.40;6.28;;;;;;;19.90;75.27;96490.06;128032;1092;26299;-92
2021/07/28 02:31:00;;;;;;;10.58;7.60;;;;;;;19.87;75.12;96490.76;128092;1092;23318;-90
2021/07/28 02:33:34;;;;;;;10.10;6.45;;;;;;;19.86;75.40;96489.98;128075;1092;23163;-89
2021/07/28 02:36:06;;;;;;;9.60;7.43;;;;;;;19.88;75.07;96489.63;128067;1093;23798;-90
2021/07/28 02:38:37;;;;;;;9.20;6.85;;;;;;;19.88;75.32;96486.16;128048;1092;26321;-90
2021/07/28 02:41:08;;;;;;;10.78;7.48;;;;;;;19.89;75.52;96503.86;128036;1092;22981;-89
2021/07/28 02:43:39;;;;;;;10.80;7.55;;;;;;;19.90;75.51;96497.36;128040;1092;27776;-90
2021/07/28 02:46:10;;;;;;;11.08;7.63;;;;;;;19.90;75.38;96500.83;128066;1092;24125;-90
2021/07/28 02:48:41;;;;;;;10.13;7.05;;;;;;;19.85;75.80;96496.48;127889;1092;23459;-90
2021/07/28 02:51:13;;;;;;;11.88;7.30;;;;;;;19.81;75.52;96494.80;127963;1093;23519;-90
2021/07/28 02:53:44;;;;;;;10.48;6.93;;;;;;;19.81;76.17;96497.48;128026;1091;23820;-90
2021/07/28 02:56:15;;;;;;;10.58;7.50;;;;;;;19.82;75.98;96496.36;128001;1092;24672;-90
2021/07/28 02:58:46;;;;;;;10.58;7.50;;;;;;;19.82;75.71;96493.66;127974;1092;24175;-91
2021/07/28 03:01:18;;;;;;;9.98;7.75;;;;;;;19.80;76.17;96502.08;128018;1092;24447;-90
2021/07/28 03:03:49;;;;;;;13.27;8.60;;;;;;;19.74;76.29;96498.07;128047;1092;22959;-90
2021/07/28 03:06:20;;;;;;;11.48;7.50;;;;;;;19.68;76.39;96504.80;128054;1092;22863;-89
2021/07/28 03:08:52;;;;;;;9.70;7.45;;;;;;;19.71;76.66;96503.35;127911;1092;25738;-90
2021/07/28 03:11:24;;;;;;;10.03;7.10;;;;;;;19.63;76.80;96498.88;127989;1092;23869;-89
2021/07/28 03:13:55;;;;;;;11.30;8.15;;;;;;;19.55;77.19;96495.95;127654;1093;26644;-90
2021/07/28 03:16:26;;;;;;;9.15;7.23;;;;;;;19.50;76.98;96498.86;127939;1093;24223;-90
2021/07/28 03:18:58;;;;;;;10.53;8.28;;;;;;;19.49;77.00;96499.98;127915;1092;24854;-90
2021/07/28 03:21:29;;;;;;;11.03;6.93;;;;;;;19.47;76.97;96493.38;127860;1092;22898;-91
2021/07/28 03:24:00;;;;;;;8.70;6.53;;;;;;;19.42;76.77;96494.38;127758;1092;23324;-91
2021/07/28 03:26:31;;;;;;;9.30;6.93;;;;;;;19.34;77.02;96487.23;127731;1092;24457;-90
2021/07/28 03:29:02;;;;;;;11.40;7.23;;;;;;;19.38;77.08;96490.80;127978;1093;22787;-91
2021/07/28 03:31:34;;;;;;;8.43;6.83;;;;;;;19.40;77.13;96482.39;127683;1092;26280;-91
2021/07/28 03:34:05;;;;;;;11.58;7.70;;;;;;;19.45;77.10;96484.88;127982;1092;23572;-91
2021/07/28 03:36:36;;;;;;;8.93;6.50;;;;;;;19.47;77.02;96483.41;128026;1092;23918;-91
2021/07/28 03:39:07;;;;;;;9.13;6.95;;;;;;;19.50;77.00;96477.34;127930;1093;24460;-90
2021/07/28 03:41:38;;;;;;;8.18;6.23;;;;;;;19.46;76.95;96478.38;127824;1092;24431;-90
2021/07/28 03:44:10;;;;;;;8.80;6.13;;;;;;;19.36;77.09;96482.30;128014;1092;23850;-90
2021/07/28 03:46:41;;;;;;;8.20;6.30;;;;;;;19.34;77.23;96479.16;127750;1093;22806;-89
2021/07/28 03:49:12;;;;;;;10.15;7.15;;;;;;;19.44;77.19;96472.55;127993;1092;24172;-90
2021/07/28 03:51:43;;;;;;;9.43;7.30;;;;;;;19.61;77.11;96466.16;128030;1092;23536;-90
2021/07/28 03:54:15;;;;;;;9.10;6.47;;;;;;;19.67;76.81;96464.79;127994;1092;22895;-90
2021/07/28 03:56:46;;;;;;;11.90;6.50;;;;;;;19.68;76.93;96460.98;128030;1091;22787;-90
2021/07/28 03:59:17;;;;;;;9.13;6.15;;;;;;;19.64;76.82;96460.88;127819;1092;23010;-90
2021/07/28 04:01:48;;;;;;;10.15;5.50;;;;;;;19.64;76.83;96470.85;127949;1093;24475;-90
2021/07/28 04:04:19;;;;;;;9.38;6.33;;;;;;;19.70;76.88;96472.17;128088;1092;23210;-89
2021/07/28 04:06:51;;;;;;;10.58;6.15;;;;;;;19.73;76.74;96469.61;128072;1093;24319;-90
2021/07/28 04:09:22;;;;;;;10.63;6.83;;;;;;;19.84;77.09;96464.52;127859;1093;23687;-91
2021/07/28 04:11:53;;;;;;;8.93;6.10;;;;;;;19.96;77.04;96461.78;128037;1093;25577;-90
2021/07/28 04:14:24;;;;;;;11.13;6.93;;;;;;;20.01;76.75;96468.85;127981;1093;23277;-89
2021/07/28 04:16:56;;;;;;;9.48;6.80;;;;;;;20.09;76.66;96467.91;127838;1092;22799;-91
2021/07/28 04:19:27;;;;;;;8.53;5.50;;;;;;;20.12;76.55;96464.52;127668;1093;23674;-91
2021/07/28 04:21:58;;;;;;;7.80;5.73;;;;;;;20.18;76.01;96473.94;127732;1093;24126;-90
2021/07/28 04:24:29;;;;;;;10.15;6.30;;;;;;;20.37;75.85;96463.29;127812;1092;23923;-90
2021/07/28 04:27:00;;;;;;;7.50;5.80;;;;;;;20.58;75.75;96454.24;128045;1093;26155;-90
2021/07/28 04:29:32;;;;;;;8.55;6.25;;;;;;;20.67;75.70;96447.54;127699;1093;23718;-89
2021/07/28 04:32:03;;;;;;;9.10;6.43;;;;;;;20.81;74.94;96460.58;127970;1093;26285;-91
2021/07/28 04:34:36;;;;;;;8.45;6.35;;;;;;;20.93;74.42;96459.72;128018;1092;24619;-89
2021/07/28 04:37:08;;;;;;;8.53;6.20;;;;;;;21.10;73.90;96453.95;127915;1093;24984;-91
2021/07/28 04:39:39;;;;;;;9.18;6.20;;;;;;;21.32;73.92;96445.27;127907;1092;24197;-91
2021/07/28 04:42:11;;;;;;;9.48;6.55;;;;;;;21.47;73.27;96445.58;127986;1093;26239;-90
2021/07/28 04:44:42;;;;;;;7.25;5.90;;;;;;;21.52;72.98;96440.68;127962;1092;23907;-90
2021/07/28 04:47:13;;;;;;;9.20;6.37;;;;;;;21.70;72.73;96446.47;128014;1093;24291;-89
2021/07/28 04:49:44;;;;;;;8.35;5.65;;;;;;;21.94;72.86;96451.58;127990;1093;25353;-90
2021/07/28 04:52:15;;;;;;;9.95;5.93;;;;;;;22.13;72.27;96445.44;128029;1093;23307;-91
2021/07/28 04:54:47;;;;;;;11.35;6.48;;;;;;;22.25;71.50;96444.51;127699;1092;23647;-89
2021/07/28 04:57:18;;;;;;;8.55;5.88;;;;;;;22.38;71.34;96440.51;127913;1092;24126;-90
2021/07/28 04:59:49;;;;;;;7.63;5.53;;;;;;;23.06;71.54;96441.65;127986;1092;22801;-90
2021/07/28 05:02:23;;;;;;;8.85;6.28;;;;;;;24.48;70.10;96448.92;128025;1093;25822;-90
2021/07/28 05:04:57;;;;;;;8.95;6.10;;;;;;;25.86;66.83;96445.72;127708;1093;24459;-89
2021/07/28 05:07:28;;;;;;;8.35;5.88;;;;;;;26.92;64.22;96444.45;128020;1092;22790;-89
2021/07/28 05:09:59;;;;;;;7.73;5.75;;;;;;;28.07;63.12;96448.55;128020;1092;22841;-91
2021/07/28 05:12:31;;;;;;;8.33;5.75;;;;;;;29.13;59.28;96454.53;127951;1093;22855;-89
2021/07/28 05:15:02;;;;;;;6.75;5.15;;;;;;;29.82;58.29;96453.49;128027;1093;22846;-90
2021/07/28 05:17:33;;;;;;;5.95;4.53;;;;;;;30.61;56.05;96445.86;127890;1092;22846;-89
2021/07/28 05:20:05;;;;;;;9.33;5.25;;;;;;;31.38;54.59;96456.02;128019;1093;41394;-89
2021/07/28 05:22:36;;;;;;;6.30;5.15;;;;;;;30.78;51.94;96451.51;127911;1093;22816;-90
2021/07/28 05:25:09;;;;;;;6.65;4.93;;;;;;;29.93;52.80;96440.48;128013;1093;22835;-90
2021/07/28 05:27:40;;;;;;;7.20;5.10;;;;;;;29.20;53.68;96446.30;128032;1093;26236;-90
2021/07/28 05:30:13;;;;;;;6.38;4.80;;;;;;;29.87;55.21;96444.86;127959;1091;27768;-90
2021/07/28 05:32:45;;;;;;;5.63;4.68;;;;;;;31.77;53.99;96432.63;127950;1091;26319;-90
2021/07/28 05:35:16;;;;;;;6.38;4.73;;;;;;;33.65;52.18;96444.05;127668;1093;22801;-89
2021/07/28 05:37:47;;;;;;;8.60;4.90;;;;;;;35.22;49.41;96437.42;127749;1092;24430;-90
2021/07/28 05:40:19;;;;;;;5.48;4.45;;;;;;;36.68;47.41;96434.16;127761;1093;22922;-90
2021/07/28 05:42:50;;;;;;;5.85;4.80;;;;;;;37.46;44.54;96433.78;128017;1093;33923;-90
2021/07/28 05:45:21;;;;;;;8.88;4.65;;;;;;;38.19;43.37;96430.19;128095;1092;25884;-89
2021/07/28 05:47:52;;;;;;;6.78;4.13;;;;;;;38.95;41.48;96428.23;128069;1092;22784;-89
2021/07/28 05:50:24;;;;;;;5.93;4.30;;;;;;;39.23;38.65;96424.08;128093;1092;23868;-86
2021/07/28 05:52:55;;;;;;;5.23;4.60;;;;;;;38.57;37.76;96424.86;127943;1092;23141;-90
2021/07/28 05:55:26;;;;;;;5.33;4.40;;;;;;;38.17;37.52;96427.13;128110;1092;22810;-90
2021/07/28 05:57:58;;;;;;;5.63;3.90;;;;;;;38.34;38.46;96428.33;128095;1093;24419;-90
2021/07/28 06:00:30;;;;;;;5.93;4.20;;;;;;;39.69;37.26;96429.28;128064;1092;22780;-90
2021/07/28 06:03:03;;;;;;;6.38;4.20;;;;;;;40.96;36.98;96415.27;128131;1092;26239;-90
2021/07/28 06:05:35;;;;;;;5.33;3.73;;;;;;;41.58;34.75;96418.84;128110;1092;22794;-90
2021/07/28 06:08:07;;;;;;;5.20;4.13;;;;;;;42.07;34.78;96426.20;128090;1093;26436;-90
2021/07/28 06:10:38;;;;;;;4.33;3.73;;;;;;;43.08;33.64;96427.78;128102;1092;22786;-90
2021/07/28 06:13:10;;;;;;;4.03;3.63;;;;;;;43.40;32.56;96420.08;128121;1092;22779;-90
2021/07/28 06:15:41;;;;;;;4.35;3.73;;;;;;;44.22;31.85;96420.05;128084;1091;22864;-91
2021/07/28 06:18:12;;;;;;;5.28;3.93;;;;;;;44.65;30.31;96414.97;128087;1092;22810;-90
2021/07/28 06:20:43;;;;;;;5.10;3.80;;;;;;;44.71;29.71;96418.50;128082;1092;22783;-90
2021/07/28 06:23:15;;;;;;;4.65;3.55;;;;;;;45.35;29.25;96427.03;128101;1093;27521;-89
2021/07/28 06:25:47;;;;;;;4.40;4.00;;;;;;;45.10;27.95;96420.47;128086;1092;24963;-89
2021/07/28 06:28:18;;;;;;;6.50;3.90;;;;;;;45.00;27.38;96422.03;128031;1092;24357;-89
2021/07/28 06:30:52;;;;;;;4.98;4.10;;;;;;;45.09;27.95;96421.75;128066;1092;24439;-89
2021/07/28 06:33:24;;;;;;;5.38;4.35;;;;;;;45.17;27.15;96417.13;128143;1092;23140;-89
2021/07/28 06:35:55;;;;;;;4.40;4.00;;;;;;;45.77;26.08;96416.66;127841;1093;22838;-89
2021/07/28 06:38:26;;;;;;;4.23;3.63;;;;;;;45.13;26.11;96413.08;128088;1091;27138;-90
2021/07/28 06:40:58;;;;;;;5.50;4.18;;;;;;;44.21;25.71;96412.94;128092;1093;26459;-90
2021/07/28 06:43:29;;;;;;;5.63;4.48;;;;;;;44.24;27.01;96416.75;128090;1093;22850;-90
2021/07/28 06:46:03;;;;;;;6.40;4.15;;;;;;;43.88;26.79;96412.86;128115;1093;22783;-91
2021/07/28 06:48:34;;;;;;;4.75;4.03;;;;;;;44.63;26.31;96414.72;128075;1092;22841;-90
2021/07/28 06:51:05;;;;;;;5.55;3.95;;;;;;;44.86;25.89;96411.86;127724;1092;27153;-90
2021/07/28 06:53:37;;;;;;;4.60;4.10;;;;;;;44.39;26.18;96408.86;127748;1092;23605;-91
2021/07/28 06:56:11;;;;;;;5.03;4.53;;;;;;;44.06;25.78;96412.37;128073;1092;22793;-90
2021/07/28 06:58:42;;;;;;;5.20;3.73;;;;;;;43.64;26.71;96416.86;127704;1091;22845;-90
2021/07/28 07:01:14;;;;;;;4.85;3.75;;;;;;;44.16;26.26;96408.09;128064;1092;24866;-90
2021/07/28 07:03:45;;;;;;;4.53;3.48;;;;;;;45.09;25.88;96402.16;128017;1093;22856;-90
2021/07/28 07:06:16;;;;;;;4.68;4.03;;;;;;;45.17;25.54;96400.33;127701;1093;22852;-90
2021/07/28 07:08:47;;;;;;;6.73;3.73;;;;;;;45.58;25.90;96408.06;128064;1092;23022;-90
2021/07/28 07:11:19;;;;;;;4.38;3.63;;;;;;;46.35;24.81;96408.86;127701;1093;32930;-89
2021/07/28 07:13:51;;;;;;;6.80;3.48;;;;;;;46.79;24.09;96406.21;128064;1092;24800;-90
2021/07/28 07:16:22;;;;;;;3.93;3.53;;;;;;;47.51;24.12;96407.41;127785;1093;22823;-90
2021/07/28 07:18:53;;;;;;;5.05;4.03;;;;;;;47.89;23.29;96397.73;127759;1092;24192;-90
2021/07/28 07:21:24;;;;;;;4.03;3.65;;;;;;;47.96;23.04;96401.95;128149;1092;22741;-87
2021/07/28 07:23:56;;;;;;;4.98;3.80;;;;;;;48.80;22.69;96399.81;129156;1093;22823;-89
2021/07/28 07:26:27;;;;;;;4.20;3.68;;;;;;;48.81;22.01;96396.45;129035;1092;22773;-90
2021/07/28 07:28:58;;;;;;;5.78;3.43;;;;;;;49.18;22.15;96392.69;128218;1092;22789;-89
2021/07/28 07:31:30;;;;;;;6.93;3.83;;;;;;;49.51;21.54;96396.88;127789;1093;25983;-90
2021/07/28 07:34:01;;;;;;;5.90;3.50;;;;;;;49.90;21.30;96396.02;127726;1093;22973;-89
2021/07/28 07:36:32;;;;;;;5.45;3.28;;;;;;;49.82;20.93;96397.98;127679;1092;26226;-90
2021/07/28 07:39:03;;;;;;;4.60;3.45;;;;;;;49.57;20.71;96382.67;128068;1093;22856;-90
2021/07/28 07:41:35;;;;;;;6.60;3.80;;;;;;;49.32;20.43;96374.50;127706;1093;23676;-91
2021/07/28 07:44:07;;;;;;;5.10;4.13;;;;;;;50.04;20.48;96379.82;127716;1093;22813;-91
2021/07/28 07:46:38;;;;;;;4.78;3.70;;;;;;;50.92;20.61;96375.25;127707;1092;22810;-88
2021/07/28 07:49:10;;;;;;;6.98;4.18;;;;;;;51.82;19.07;96373.42;128005;1093;22823;-90
2021/07/28 07:51:41;;;;;;;6.35;3.53;;;;;;;50.81;17.33;96369.91;128025;1093;24905;-90
2021/07/28 07:54:13;;;;;;;4.65;3.38;;;;;;;50.02;18.99;96367.59;128006;1092;22953;-89
2021/07/28 07:56:44;;;;;;;5.68;3.65;;;;;;;49.63;18.17;96363.56;127962;1093;22648;-90
2021/07/28 07:59:16;;;;;;;5.08;3.03;;;;;;;49.34;17.90;96360.63;127932;1092;22795;-90
2021/07/28 08:01:47;;;;;;;8.10;3.58;;;;;;;48.62;17.60;96354.36;127657;1093;22772;-91
2021/07/28 08:04:23;;;;;;;5.63;3.05;;;;;;;48.05;18.06;96355.83;127975;1093;27144;-90
2021/07/28 08:06:54;;;;;;;5.10;3.45;;;;;;;47.47;17.83;96359.97;128007;1093;22799;-87
2021/07/28 08:09:26;;;;;;;6.03;3.58;;;;;;;47.36;19.14;96362.93;128009;1092;27249;-90
2021/07/28 08:11:57;;;;;;;6.28;3.40;;;;;;;47.53;17.03;96348.67;127687;1092;22796;-89
2021/07/28 08:14:29;;;;;;;6.08;3.53;;;;;;;46.66;18.96;96347.91;127894;1093;22789;-90
2021/07/28 08:17:00;;;;;;;6.63;3.78;;;;;;;47.20;18.90;96349.88;127700;1093;22953;-89
2021/07/28 08:19:32;;;;;;;5.60;3.48;;;;;;;47.87;19.56;96349.73;128011;1092;27433;-90
2021/07/28 08:22:03;;;;;;;4.58;2.85;;;;;;;48.93;18.92;96354.78;127924;1092;23342;-89
2021/07/28 08:24:35;;;;;;;3.98;3.38;;;;;;;48.86;18.68;96350.58;127741;1092;22796;-89
2021/07/28 08:27:06;;;;;;;8.00;3.80;;;;;;;48.89;19.30;96348.73;127749;1092;31198;-89
2021/07/28 08:29:37;;;;;;;7.75;3.80;;;;;;;48.32;18.44;96345.43;127887;1092;24103;-89
2021/07/28 08:32:09;;;;;;;6.35;3.18;;;;;;;48.55;18.75;96346.52;128014;1093;23756;-89
2021/07/28 08:34:41;;;;;;;6.60;3.70;;;;;;;48.24;17.62;96342.48;128004;1092;26238;-89
2021/07/28 08:37:12;;;;;;;6.33;4.23;;;;;;;45.75;19.06;96341.55;127976;1092;23030;-89
2021/07/28 08:39:44;;;;;;;8.30;3.70;;;;;;;44.70;20.08;96338.67;127988;1092;24409;-88
2021/07/28 08:42:18;;;;;;;8.20;3.78;;;;;;;43.55;20.68;96339.67;128026;1092;23437;-90
2021/07/28 08:44:49;;;;;;;9.48;4.00;;;;;;;42.84;22.19;96344.45;127958;1092;22839;-89
2021/07/28 08:47:22;;;;;;;7.08;4.03;;;;;;;41.90;21.90;96336.93;128069;1093;24389;-89
2021/07/28 08:49:53;;;;;;;8.83;3.85;;;;;;;40.93;23.14;96336.36;127720;1093;24147;-89
2021/07/28 08:52:27;;;;;;;7.85;3.98;;;;;;;40.03;23.87;96328.73;127895;1093;23054;-88
2021/07/28 08:54:58;;;;;;;8.38;3.90;;;;;;;38.23;24.91;96326.36;127720;1091;22866;-89
2021/07/28 08:57:32;;;;;;;7.25;3.88;;;;;;;36.77;26.38;96338.28;127903;1093;24526;-89
2021/07/28 09:00:07;;;;;;;8.03;4.13;;;;;;;36.35;27.73;96338.02;127683;1092;24378;-89
2021/07/28 09:02:39;;;;;;;7.60;3.68;;;;;;;36.58;27.73;96329.16;127927;1093;27172;-89
2021/07/28 09:05:12;;;;;;;9.05;4.50;;;;;;;35.86;28.54;96329.63;127701;1093;23547;-88
2021/07/28 09:07:43;;;;;;;6.88;4.10;;;;;;;35.18;29.04;96323.75;127844;1092;22884;-89
2021/07/28 09:10:15;;;;;;;7.53;4.35;;;;;;;34.21;29.91;96336.38;127706;1092;22761;-87
2021/07/28 09:12:47;;;;;;;7.78;4.58;;;;;;;33.68;31.27;96315.94;127891;1093;22813;-88
2021/07/28 09:15:18;;;;;;;6.90;3.70;;;;;;;33.77;32.13;96319.56;127966;1092;23964;-88
2021/07/28 09:17:50;;;;;;;8.03;4.25;;;;;;;33.55;32.52;96321.40;128046;1092;22825;-87
2021/07/28 09:20:28;;;;;;;10.35;4.50;;;;;;;33.42;33.03;96320.59;128058;1093;22867;-88
2021/07/28 09:23:13;;;;;;;6.23;4.15;;;;;;;33.12;32.93;96317.06;127713;1092;25624;-91
2021/07/28 09:25:50;;;;;;;8.18;4.23;;;;;;;32.41;34.58;96336.06;128165;1092;22826;-87
2021/07/28 09:28:23;;;;;;;9.95;4.38;;;;;;;32.13;35.03;96325.73;128074;1093;22793;-88
2021/07/28 09:30:54;;;;;;;9.03;4.20;;;;;;;31.81;34.58;96327.20;128045;1093;22822;-85
2021/07/28 09:33:25;;;;;;;9.38;4.48;;;;;;;31.45;35.22;96316.17;127667;1093;23317;-88
2021/07/28 09:36:24;;;;;;;9.03;4.48;;;;;;;31.24;36.25;96324.79;127810;1093;22953;-90
2021/07/28 09:38:56;;;;;;;6.85;4.28;;;;;;;31.19;35.94;96315.10;127704;1093;25573;-86
2021/07/28 09:41:29;;;;;;;7.45;4.28;;;;;;;31.08;36.84;96317.23;127774;1093;24180;-88
2021/07/28 09:44:02;;;;;;;7.68;4.03;;;;;;;31.15;36.07;96325.33;127690;1093;24029;-88
2021/07/28 09:46:35;;;;;;;7.20;3.98;;;;;;;31.30;36.99;96318.41;127655;1093;24843;-88
2021/07/28 09:49:08;;;;;;;7.70;4.28;;;;;;;31.56;37.15;96324.17;128098;1093;22810;-87
2021/07/28 09:51:44;;;;;;;9.73;4.15;;;;;;;31.66;37.05;96327.88;128095;1091;25763;-89
2021/07/28 09:54:16;;;;;;;10.03;4.20;;;;;;;31.48;36.52;96320.02;128124;1093;27150;-88
2021/07/28 09:56:51;;;;;;;7.53;3.95;;;;;;;31.26;36.36;96320.46;127684;1093;22799;-88
2021/07/28 09:59:23;;;;;;;6.60;3.63;;;;;;;31.29;37.01;96310.63;128144;1092;22838;-88
2021/07/28 10:01:57;;;;;;;7.08;3.88;;;;;;;31.29;36.58;96316.88;127660;1092;25930;-85
2021/07/28 10:04:33;;;;;;;8.80;4.18;;;;;;;31.02;37.14;96313.45;128073;1092;23120;-88
2021/07/28 10:07:05;;;;;;;6.65;3.78;;;;;;;30.90;37.00;96305.84;128103;1093;23660;-94
2021/07/28 10:09:41;;;;;;;7.08;3.78;;;;;;;30.67;37.60;96310.13;128158;1091;22783;-94
2021/07/28 10:12:14;;;;;;;5.95;3.78;;;;;;;30.59;37.52;96296.98;127759;1093;25967;-90
2021/07/28 10:14:46;;;;;;;9.78;4.28;;;;;;;30.26;37.34;96312.34;127848;1094;22783;-92
2021/07/28 10:17:19;;;;;;;12.38;3.83;;;;;;;29.92;37.95;96306.95;127864;1093;23179;-91
2021/07/28 10:19:53;;;;;;;6.83;3.60;;;;;;;29.66;38.61;96311.20;127855;1093;23252;-90
2021/07/28 10:22:24;;;;;;;8.33;3.75;;;;;;;29.52;38.70;96303.97;127852;1093;22820;-90
2021/07/28 10:24:57;;;;;;;10.98;4.00;;;;;;;29.51;38.82;96302.42;127831;1093;22867;-91
2021/07/28 10:27:28;;;;;;;8.65;4.68;;;;;;;29.57;38.60;96305.48;127829;1092;31802;-90
2021/07/28 10:30:00;;;;;;;9.35;3.93;;;;;;;29.47;38.44;96302.47;127455;1093;23284;-90
2021/07/28 10:32:33;;;;;;;8.13;4.00;;;;;;;29.34;39.14;96300.66;127905;1093;22783;-90
2021/07/28 10:35:25;;;;;;;7.48;4.00;;;;;;;29.16;39.51;96301.64;127909;1093;23224;-92
2021/07/28 10:37:58;;;;;;;9.90;4.28;;;;;;;29.12;40.19;96302.84;127848;1093;22751;-92
2021/07/28 10:40:50;;;;;;;6.70;3.98;;;;;;;29.37;39.79;96311.53;127857;1093;22810;-89
2021/07/28 10:43:21;;;;;;;7.47;3.90;;;;;;;29.80;40.04;96300.09;127836;1092;23499;-92
2021/07/28 10:46:00;;;;;;;11.03;4.08;;;;;;;30.10;39.49;96293.83;127851;1093;22785;-91
2021/07/28 10:49:00;;;;;;;8.33;3.93;;;;;;;30.26;38.41;96290.45;127912;1093;26336;-91
2021/07/28 10:51:53;;;;;;;9.08;4.10;;;;;;;30.48;39.03;96286.20;127658;1093;22799;-90
2021/07/28 10:55:02;;;;;;;7.63;4.13;;;;;;;30.58;38.60;96279.02;127841;1093;24437;-94
2021/07/28 10:58:06;;;;;;;8.03;3.70;;;;;;;30.37;38.08;96282.86;127777;1093;26242;-89
2021/07/28 11:00:55;;;;;;;6.60;3.75;;;;;;;30.11;38.16;96278.97;127597;1093;22833;-91
2021/07/28 11:03:38;;;;;;;6.80;3.35;;;;;;;29.97;37.85;96281.89;127855;1093;22810;-91
2021/07/28 11:06:19;;;;;;;8.07;3.40;;;;;;;30.00;38.77;96283.81;127889;1092;23454;-89
2021/07/28 11:08:50;;;;;;;9.35;3.80;;;;;;;30.21;39.37;96285.47;127882;1093;22768;-91
2021/07/28 11:11:31;;;;;;;5.85;3.30;;;;;;;30.28;38.53;96288.11;127864;1093;23395;-90
2021/07/28 11:14:06;;;;;;;8.35;3.50;;;;;;;30.40;38.65;96284.76;127910;1093;22826;-91
2021/07/28 11:16:39;;;;;;;7.03;3.58;;;;;;;30.50;37.84;96294.77;127612;1093;22820;-89
2021/07/28 11:19:10;;;;;;;6.78;3.48;;;;;;;30.53;37.81;96282.98;127741;1093;22865;-90
2021/07/28 11:21:42;;;;;;;6.93;3.60;;;;;;;30.55;36.92;96285.33;127867;1093;22789;-90
2021/07/28 11:24:13;;;;;;;7.58;3.15;;;;;;;30.55;37.84;96288.84;127873;1093;22786;-94
2021/07/28 11:26:46;;;;;;;6.35;3.35;;;;;;;30.59;36.77;96286.03;127772;1093;22790;-95
2021/07/28 11:29:21;;;;;;;11.20;4.28;;;;;;;30.55;37.39;96285.33;127871;1093;22816;-89
2021/07/28 11:31:53;;;;;;;9.43;3.80;;;;;;;30.55;37.08;96277.89;127681;1093;26936;-90
2021/07/28 11:34:25;;;;;;;7.40;3.98;;;;;;;30.46;36.07;96288.59;127847;1093;24424;-88
2021/07/28 11:37:02;;;;;;;10.05;3.75;;;;;;;30.51;37.69;96293.58;127855;1093;22797;-94
2021/07/28 11:39:34;;;;;;;7.08;3.65;;;;;;;30.59;36.11;96275.09;127920;1093;24424;-90
2021/07/28 11:42:08;;;;;;;8.80;4.08;;;;;;;30.54;36.51;96270.84;127907;1093;22783;-92
2021/07/28 11:44:45;;;;;;;6.33;3.68;;;;;;;30.50;36.00;96278.34;127867;1092;22857;-90
2021/07/28 11:47:25;;;;;;;5.80;3.38;;;;;;;30.49;36.67;96271.33;127652;1093;24880;-96
2021/07/28 11:50:04;;;;;;;9.47;3.63;;;;;;;30.61;37.58;96265.27;127434;1093;22823;-91
2021/07/28 11:52:48;;;;;;;6.20;3.75;;;;;;;30.76;37.28;96262.30;127800;1093;26832;-91